sensor_id;sensor_type;location;lat;lon;timestamp;pressure;altitude;pressure_sealevel;temperature;humidity
13604;BME280;24578;48.264;11.436;2022-10-16T00:00:20;96154.47;;;10.87;100.00
13604;BME280;24578;48.264;11.436;2022-10-16T00:03:20;96160.94;;;10.81;100.00
13604;BME280;24578;48.264;11.436;2022-10-16T00:06:21;96159.41;;;10.79;100.00
13604;BME280;24578;48.264;11.436;2022-10-16T00:09:21;96159.63;;;10.76;100.00
13604;BME280;24578;48.264;11.436;2022-10-16T00:12:21;96158.91;;;10.74;100.00
13604;BME280;24578;48.264;11.436;2022-10-16T00:15:21;96157.59;;;10.68;100.00
13604;BME280;24578;48.264;11.436;2022-10-16T00:18:22;96161.00;;;10.69;100.00
13604;BME280;24578;48.264;11.436;2022-10-16T00:21:24;96153.22;;;10.69;100.00
13604;BME280;24578;48.264;11.436;2022-10-16T00:24:24;96159.47;;;10.66;100.00
13604;BME280;24578;48.264;11.436;2022-10-16T00:27:24;96157.09;;;10.63;100.00
13604;BME280;24578;48.264;11.436;2022-10-16T00:30:25;96157.31;;;10.60;100.00
13604;BME280;24578;48.264;11.436;2022-10-16T00:33:27;96156.63;;;10.58;100.00
13604;BME280;24578;48.264;11.436;2022-10-16T00:36:27;96164.63;;;10.55;100.00
13604;BME280;24578;48.264;11.436;2022-10-16T00:39:28;96171.66;;;10.53;100.00
13604;BME280;24578;48.264;11.436;2022-10-16T00:42:28;96176.13;;;10.50;100.00
13604;BME280;24578;48.264;11.436;2022-10-16T00:45:28;96178.13;;;10.47;100.00
13604;BME280;24578;48.264;11.436;2022-10-16T00:48:29;96173.03;;;10.45;100.00
13604;BME280;24578;48.264;11.436;2022-10-16T00:51:34;96184.22;;;10.46;100.00
13604;BME280;24578;48.264;11.436;2022-10-16T00:54:35;96187.53;;;10.48;100.00
13604;BME280;24578;48.264;11.436;2022-10-16T00:57:35;96191.66;;;10.50;100.00
13604;BME280;24578;48.264;11.436;2022-10-16T01:00:38;96181.19;;;10.52;100.00
13604;BME280;24578;48.264;11.436;2022-10-16T01:03:39;96167.09;;;10.56;100.00
13604;BME280;24578;48.264;11.436;2022-10-16T01:09:51;96186.84;;;10.57;100.00
13604;BME280;24578;48.264;11.436;2022-10-16T01:13:04;96186.97;;;10.56;100.00
13604;BME280;24578;48.264;11.436;2022-10-16T01:22:06;96194.59;;;10.46;100.00
13604;BME280;24578;48.264;11.436;2022-10-16T01:25:09;96188.81;;;10.42;100.00
13604;BME280;24578;48.264;11.436;2022-10-16T01:28:12;96187.25;;;10.40;100.00
13604;BME280;24578;48.264;11.436;2022-10-16T01:31:15;96181.44;;;10.36;100.00
13604;BME280;24578;48.264;11.436;2022-10-16T01:34:19;96175.44;;;10.35;100.00
13604;BME280;24578;48.264;11.436;2022-10-16T01:37:27;96181.31;;;10.38;100.00
13604;BME280;24578;48.264;11.436;2022-10-16T01:40:28;96180.59;;;10.35;100.00
13604;BME280;24578;48.264;11.436;2022-10-16T01:43:36;96179.78;;;10.35;100.00
13604;BME280;24578;48.264;11.436;2022-10-16T01:46:39;96186.75;;;10.34;100.00
13604;BME280;24578;48.264;11.436;2022-10-16T01:49:41;96189.56;;;10.31;100.00
13604;BME280;24578;48.264;11.436;2022-10-16T01:52:43;96196.38;;;10.32;100.00
13604;BME280;24578;48.264;11.436;2022-10-16T01:55:45;96172.16;;;10.33;100.00
13604;BME280;24578;48.264;11.436;2022-10-16T01:58:57;96171.09;;;10.36;100.00
13604;BME280;24578;48.264;11.436;2022-10-16T02:02:01;96166.47;;;10.41;100.00
13604;BME280;24578;48.264;11.436;2022-10-16T02:05:05;96174.81;;;10.45;100.00
13604;BME280;24578;48.264;11.436;2022-10-16T02:08:10;96173.16;;;10.44;100.00
13604;BME280;24578;48.264;11.436;2022-10-16T02:11:10;96180.22;;;10.42;100.00
13604;BME280;24578;48.264;11.436;2022-10-16T02:14:11;96170.06;;;10.39;100.00
13604;BME280;24578;48.264;11.436;2022-10-16T02:17:13;96166.88;;;10.35;100.00
13604;BME280;24578;48.264;11.436;2022-10-16T02:20:14;96167.06;;;10.32;100.00
13604;BME280;24578;48.264;11.436;2022-10-16T02:23:16;96170.72;;;10.29;100.00
13604;BME280;24578;48.264;11.436;2022-10-16T02:26:24;96182.94;;;10.27;100.00
13604;BME280;24578;48.264;11.436;2022-10-16T02:29:27;96189.25;;;10.23;100.00
13604;BME280;24578;48.264;11.436;2022-10-16T02:32:29;96190.44;;;10.19;100.00
13604;BME280;24578;48.264;11.436;2022-10-16T02:35:30;96189.94;;;10.14;100.00
13604;BME280;24578;48.264;11.436;2022-10-16T02:38:31;96192.59;;;10.12;100.00
13604;BME280;24578;48.264;11.436;2022-10-16T02:41:32;96193.56;;;10.11;100.00
13604;BME280;24578;48.264;11.436;2022-10-16T02:44:32;96187.56;;;10.11;100.00
13604;BME280;24578;48.264;11.436;2022-10-16T02:47:33;96187.56;;;10.11;100.00
13604;BME280;24578;48.264;11.436;2022-10-16T02:50:34;96187.44;;;10.12;100.00
13604;BME280;24578;48.264;11.436;2022-10-16T02:53:34;96180.31;;;10.16;100.00
13604;BME280;24578;48.264;11.436;2022-10-16T02:56:34;96183.50;;;10.19;100.00
13604;BME280;24578;48.264;11.436;2022-10-16T02:59:34;96186.06;;;10.19;100.00
13604;BME280;24578;48.264;11.436;2022-10-16T03:02:34;96194.16;;;10.15;100.00
13604;BME280;24578;48.264;11.436;2022-10-16T03:05:35;96202.25;;;10.10;100.00
13604;BME280;24578;48.264;11.436;2022-10-16T03:08:35;96194.81;;;10.05;100.00
13604;BME280;24578;48.264;11.436;2022-10-16T03:11:35;96193.28;;;10.03;100.00
13604;BME280;24578;48.264;11.436;2022-10-16T03:14:35;96200.44;;;9.99;100.00
13604;BME280;24578;48.264;11.436;2022-10-16T03:17:35;96204.88;;;9.97;100.00
13604;BME280;24578;48.264;11.436;2022-10-16T03:20:35;96202.41;;;9.96;100.00
13604;BME280;24578;48.264;11.436;2022-10-16T03:23:36;96205.00;;;9.96;100.00
13604;BME280;24578;48.264;11.436;2022-10-16T03:26:36;96199.59;;;9.99;100.00
13604;BME280;24578;48.264;11.436;2022-10-16T03:29:36;96195.97;;;10.01;100.00
13604;BME280;24578;48.264;11.436;2022-10-16T03:32:36;96193.16;;;10.04;100.00
13604;BME280;24578;48.264;11.436;2022-10-16T03:35:37;96202.34;;;10.09;100.00
13604;BME280;24578;48.264;11.436;2022-10-16T03:38:37;96200.38;;;10.12;100.00
13604;BME280;24578;48.264;11.436;2022-10-16T03:41:37;96208.03;;;10.14;100.00
13604;BME280;24578;48.264;11.436;2022-10-16T03:44:38;96216.31;;;10.19;100.00
13604;BME280;24578;48.264;11.436;2022-10-16T03:47:38;96219.50;;;10.23;100.00
13604;BME280;24578;48.264;11.436;2022-10-16T03:50:38;96215.84;;;10.25;100.00
13604;BME280;24578;48.264;11.436;2022-10-16T03:53:38;96217.38;;;10.28;100.00
13604;BME280;24578;48.264;11.436;2022-10-16T03:56:38;96212.94;;;10.30;100.00
13604;BME280;24578;48.264;11.436;2022-10-16T03:59:39;96215.41;;;10.31;100.00
13604;BME280;24578;48.264;11.436;2022-10-16T04:02:39;96212.63;;;10.34;100.00
13604;BME280;24578;48.264;11.436;2022-10-16T04:05:39;96206.38;;;10.37;100.00
13604;BME280;24578;48.264;11.436;2022-10-16T04:08:42;96210.44;;;10.41;100.00
13604;BME280;24578;48.264;11.436;2022-10-16T04:11:42;96217.16;;;10.44;100.00
13604;BME280;24578;48.264;11.436;2022-10-16T04:14:42;96216.22;;;10.45;100.00
13604;BME280;24578;48.264;11.436;2022-10-16T04:17:42;96212.69;;;10.46;100.00
13604;BME280;24578;48.264;11.436;2022-10-16T04:20:43;96210.91;;;10.46;100.00
13604;BME280;24578;48.264;11.436;2022-10-16T04:23:43;96210.72;;;10.49;100.00
13604;BME280;24578;48.264;11.436;2022-10-16T04:26:43;96205.31;;;10.53;100.00
13604;BME280;24578;48.264;11.436;2022-10-16T04:29:43;96205.31;;;10.53;100.00
13604;BME280;24578;48.264;11.436;2022-10-16T04:32:47;96204.38;;;10.54;100.00
13604;BME280;24578;48.264;11.436;2022-10-16T04:35:47;96216.25;;;10.56;100.00
13604;BME280;24578;48.264;11.436;2022-10-16T04:38:47;96222.28;;;10.57;100.00
13604;BME280;24578;48.264;11.436;2022-10-16T04:41:47;96227.34;;;10.58;100.00
13604;BME280;24578;48.264;11.436;2022-10-16T04:44:48;96221.22;;;10.59;100.00
13604;BME280;24578;48.264;11.436;2022-10-16T04:47:48;96223.69;;;10.61;100.00
13604;BME280;24578;48.264;11.436;2022-10-16T04:50:48;96224.41;;;10.63;100.00
13604;BME280;24578;48.264;11.436;2022-10-16T04:53:48;96214.88;;;10.63;100.00
13604;BME280;24578;48.264;11.436;2022-10-16T04:56:48;96213.03;;;10.65;100.00
13604;BME280;24578;48.264;11.436;2022-10-16T04:59:50;96206.91;;;10.66;100.00
13604;BME280;24578;48.264;11.436;2022-10-16T05:02:50;96202.41;;;10.69;100.00
13604;BME280;24578;48.264;11.436;2022-10-16T05:05:51;96202.31;;;10.70;100.00
13604;BME280;24578;48.264;11.436;2022-10-16T05:08:51;96216.09;;;10.71;100.00
13604;BME280;24578;48.264;11.436;2022-10-16T05:11:51;96215.16;;;10.72;100.00
13604;BME280;24578;48.264;11.436;2022-10-16T05:14:51;96214.22;;;10.73;100.00
13604;BME280;24578;48.264;11.436;2022-10-16T05:17:52;96228.00;;;10.73;100.00
13604;BME280;24578;48.264;11.436;2022-10-16T05:20:53;96228.00;;;10.73;100.00
13604;BME280;24578;48.264;11.436;2022-10-16T05:23:53;96217.63;;;10.73;100.00
13604;BME280;24578;48.264;11.436;2022-10-16T05:26:54;96232.34;;;10.73;100.00
13604;BME280;24578;48.264;11.436;2022-10-16T05:29:54;96231.28;;;10.75;100.00
13604;BME280;24578;48.264;11.436;2022-10-16T05:32:54;96230.59;;;10.73;100.00
13604;BME280;24578;48.264;11.436;2022-10-16T05:35:55;96229.75;;;10.73;100.00
13604;BME280;24578;48.264;11.436;2022-10-16T05:38:57;96234.09;;;10.72;100.00
13604;BME280;24578;48.264;11.436;2022-10-16T05:41:57;96235.97;;;10.70;100.00
13604;BME280;24578;48.264;11.436;2022-10-16T05:44:58;96235.03;;;10.71;100.00
13604;BME280;24578;48.264;11.436;2022-10-16T05:47:58;96245.41;;;10.71;100.00
13604;BME280;24578;48.264;11.436;2022-10-16T05:51:00;96240.09;;;10.73;100.00
13604;BME280;24578;48.264;11.436;2022-10-16T05:54:00;96243.63;;;10.72;100.00
13604;BME280;24578;48.264;11.436;2022-10-16T05:57:00;96238.44;;;10.72;100.00
13604;BME280;24578;48.264;11.436;2022-10-16T06:00:02;96251.50;;;10.70;100.00
13604;BME280;24578;48.264;11.436;2022-10-16T06:03:03;96253.25;;;10.70;100.00
13604;BME280;24578;48.264;11.436;2022-10-16T06:06:15;96254.19;;;10.69;100.00
13604;BME280;24578;48.264;11.436;2022-10-16T06:09:16;96261.28;;;10.66;100.00
13604;BME280;24578;48.264;11.436;2022-10-16T06:12:16;96256.31;;;10.63;100.00
13604;BME280;24578;48.264;11.436;2022-10-16T06:15:17;96261.38;;;10.65;100.00
13604;BME280;24578;48.264;11.436;2022-10-16T06:18:17;96267.13;;;10.69;100.00
13604;BME280;24578;48.264;11.436;2022-10-16T06:21:18;96267.63;;;10.74;100.00
13604;BME280;24578;48.264;11.436;2022-10-16T06:24:18;96271.66;;;10.78;100.00
13604;BME280;24578;48.264;11.436;2022-10-16T06:27:19;96273.09;;;10.82;100.00
13604;BME280;24578;48.264;11.436;2022-10-16T06:30:19;96275.44;;;10.85;100.00
13604;BME280;24578;48.264;11.436;2022-10-16T06:33:19;96278.88;;;10.86;100.00
13604;BME280;24578;48.264;11.436;2022-10-16T06:36:19;96278.88;;;10.86;100.00
13604;BME280;24578;48.264;11.436;2022-10-16T06:39:20;96286.44;;;10.89;100.00
13604;BME280;24578;48.264;11.436;2022-10-16T06:42:20;96291.97;;;10.95;100.00
13604;BME280;24578;48.264;11.436;2022-10-16T06:45:21;96295.75;;;11.03;100.00
13604;BME280;24578;48.264;11.436;2022-10-16T06:48:21;96295.09;;;11.12;100.00
13604;BME280;24578;48.264;11.436;2022-10-16T06:51:22;96299.97;;;11.28;100.00
13604;BME280;24578;48.264;11.436;2022-10-16T06:54:23;96299.88;;;11.41;100.00
13604;BME280;24578;48.264;11.436;2022-10-16T06:57:23;96302.38;;;11.54;100.00
13604;BME280;24578;48.264;11.436;2022-10-16T07:00:23;96304.16;;;11.65;100.00
13604;BME280;24578;48.264;11.436;2022-10-16T07:03:23;96305.13;;;11.86;100.00
13604;BME280;24578;48.264;11.436;2022-10-16T07:06:25;96310.53;;;12.40;100.00
13604;BME280;24578;48.264;11.436;2022-10-16T07:09:25;96316.56;;;12.85;100.00
13604;BME280;24578;48.264;11.436;2022-10-16T07:12:25;96308.69;;;13.82;100.00
13604;BME280;24578;48.264;11.436;2022-10-16T07:15:26;96303.53;;;16.28;100.00
13604;BME280;24578;48.264;11.436;2022-10-16T07:18:26;96299.59;;;18.21;100.00
13604;BME280;24578;48.264;11.436;2022-10-16T07:21:29;96304.16;;;20.91;91.90
13604;BME280;24578;48.264;11.436;2022-10-16T07:24:30;96311.00;;;22.15;80.46
13604;BME280;24578;48.264;11.436;2022-10-16T07:27:30;96314.91;;;20.41;94.90
13604;BME280;24578;48.264;11.436;2022-10-16T07:30:30;96321.59;;;20.52;83.09
13604;BME280;24578;48.264;11.436;2022-10-16T07:33:34;96324.63;;;20.80;89.60
13604;BME280;24578;48.264;11.436;2022-10-16T07:36:35;96324.22;;;20.60;83.18
13604;BME280;24578;48.264;11.436;2022-10-16T07:39:35;96319.97;;;22.80;71.36
13604;BME280;24578;48.264;11.436;2022-10-16T07:42:35;96319.88;;;25.21;68.41
13604;BME280;24578;48.264;11.436;2022-10-16T07:45:36;96312.84;;;26.55;58.61
13604;BME280;24578;48.264;11.436;2022-10-16T07:48:36;96316.44;;;27.45;49.30
13604;BME280;24578;48.264;11.436;2022-10-16T07:51:36;96312.34;;;28.18;44.67
13604;BME280;24578;48.264;11.436;2022-10-16T07:54:38;96314.84;;;28.13;42.71
13604;BME280;24578;48.264;11.436;2022-10-16T07:57:38;96320.47;;;29.76;38.99
13604;BME280;24578;48.264;11.436;2022-10-16T08:00:38;96317.19;;;30.33;36.32
13604;BME280;24578;48.264;11.436;2022-10-16T08:03:41;96313.75;;;31.03;34.95
13604;BME280;24578;48.264;11.436;2022-10-16T08:06:41;96323.66;;;31.48;33.11
13604;BME280;24578;48.264;11.436;2022-10-16T08:09:42;96317.19;;;32.17;32.00
13604;BME280;24578;48.264;11.436;2022-10-16T08:12:42;96318.03;;;32.62;29.86
13604;BME280;24578;48.264;11.436;2022-10-16T08:15:43;96322.84;;;32.83;30.58
13604;BME280;24578;48.264;11.436;2022-10-16T08:18:43;96325.66;;;32.93;30.33
13604;BME280;24578;48.264;11.436;2022-10-16T08:21:46;96332.81;;;33.15;30.59
13604;BME280;24578;48.264;11.436;2022-10-16T08:24:47;96328.13;;;33.60;29.61
13604;BME280;24578;48.264;11.436;2022-10-16T08:27:47;96331.00;;;34.34;28.78
13604;BME280;24578;48.264;11.436;2022-10-16T08:30:47;96340.38;;;34.79;28.13
13604;BME280;24578;48.264;11.436;2022-10-16T08:33:47;96339.41;;;35.32;27.00
13604;BME280;24578;48.264;11.436;2022-10-16T08:36:48;96345.31;;;35.29;27.18
13604;BME280;24578;48.264;11.436;2022-10-16T08:39:48;96351.13;;;34.84;27.89
13604;BME280;24578;48.264;11.436;2022-10-16T08:46:20;96341.88;;;35.59;27.08
13604;BME280;24578;48.264;11.436;2022-10-16T08:49:24;96351.00;;;36.00;26.70
13604;BME280;24578;48.264;11.436;2022-10-16T08:52:34;96353.31;;;36.53;25.69
13604;BME280;24578;48.264;11.436;2022-10-16T08:58:35;96353.72;;;36.00;26.02
13604;BME280;24578;48.264;11.436;2022-10-16T09:01:40;96352.06;;;36.14;25.46
13604;BME280;24578;48.264;11.436;2022-10-16T09:04:53;96351.44;;;34.35;27.32
13604;BME280;24578;48.264;11.436;2022-10-16T09:08:17;96358.06;;;33.19;29.78
13604;BME280;24578;48.264;11.436;2022-10-16T09:11:26;96356.94;;;34.55;28.02
13604;BME280;24578;48.264;11.436;2022-10-16T09:17:48;96349.94;;;35.33;26.90
13604;BME280;24578;48.264;11.436;2022-10-16T09:20:59;96353.09;;;34.99;27.50
13604;BME280;24578;48.264;11.436;2022-10-16T09:24:13;96357.44;;;35.26;27.31
13604;BME280;24578;48.264;11.436;2022-10-16T09:27:14;96359.66;;;35.50;26.55
13604;BME280;24578;48.264;11.436;2022-10-16T09:30:16;96362.25;;;35.14;27.18
13604;BME280;24578;48.264;11.436;2022-10-16T09:33:18;96363.94;;;34.56;28.20
13604;BME280;24578;48.264;11.436;2022-10-16T09:36:19;96366.84;;;34.02;28.90
13604;BME280;24578;48.264;11.436;2022-10-16T09:39:20;96369.03;;;34.10;28.79
13604;BME280;24578;48.264;11.436;2022-10-16T09:42:25;96378.75;;;33.83;30.02
13604;BME280;24578;48.264;11.436;2022-10-16T09:45:28;96377.41;;;33.81;27.86
13604;BME280;24578;48.264;11.436;2022-10-16T09:48:31;96377.13;;;33.82;29.25
13604;BME280;24578;48.264;11.436;2022-10-16T09:51:35;96378.34;;;33.37;28.25
13604;BME280;24578;48.264;11.436;2022-10-16T09:54:36;96373.88;;;32.31;29.51
13604;BME280;24578;48.264;11.436;2022-10-16T09:57:36;96385.91;;;31.95;30.22
13604;BME280;24578;48.264;11.436;2022-10-16T10:00:36;96371.19;;;31.29;31.04
13604;BME280;24578;48.264;11.436;2022-10-16T10:03:41;96377.09;;;31.77;30.14
13604;BME280;24578;48.264;11.436;2022-10-16T10:06:43;96384.44;;;32.21;30.76
13604;BME280;24578;48.264;11.436;2022-10-16T10:09:44;96385.91;;;32.29;29.54
13604;BME280;24578;48.264;11.436;2022-10-16T10:12:45;96390.28;;;32.18;28.74
13604;BME280;24578;48.264;11.436;2022-10-16T10:15:46;96392.44;;;31.53;30.30
13604;BME280;24578;48.264;11.436;2022-10-16T10:18:46;96381.50;;;31.54;29.21
13604;BME280;24578;48.264;11.436;2022-10-16T10:21:46;96382.88;;;31.57;30.49
13604;BME280;24578;48.264;11.436;2022-10-16T10:28:22;96387.66;;;32.40;29.30
13604;BME280;24578;48.264;11.436;2022-10-16T10:40:52;96379.75;;;32.90;28.40
13604;BME280;24578;48.264;11.436;2022-10-16T10:47:03;96374.66;;;32.49;28.82
13604;BME280;24578;48.264;11.436;2022-10-16T10:50:10;96371.69;;;32.68;28.58
13604;BME280;24578;48.264;11.436;2022-10-16T10:59:58;96375.59;;;31.69;30.16
13604;BME280;24578;48.264;11.436;2022-10-16T11:06:20;96377.56;;;31.74;29.92
13604;BME280;24578;48.264;11.436;2022-10-16T11:09:25;96379.22;;;31.46;30.71
13604;BME280;24578;48.264;11.436;2022-10-16T11:12:29;96381.28;;;31.73;29.30
13604;BME280;24578;48.264;11.436;2022-10-16T11:15:32;96382.19;;;31.96;28.24
13604;BME280;24578;48.264;11.436;2022-10-16T11:18:47;96380.34;;;31.79;29.21
13604;BME280;24578;48.264;11.436;2022-10-16T11:21:51;96384.53;;;31.75;29.52
13604;BME280;24578;48.264;11.436;2022-10-16T11:25:13;96382.72;;;31.64;29.75
13604;BME280;24578;48.264;11.436;2022-10-16T11:28:17;96378.19;;;31.64;29.66
13604;BME280;24578;48.264;11.436;2022-10-16T11:34:38;96379.59;;;31.38;31.66
13604;BME280;24578;48.264;11.436;2022-10-16T11:37:42;96377.19;;;31.36;30.41
13604;BME280;24578;48.264;11.436;2022-10-16T11:40:43;96376.53;;;31.29;31.18
13604;BME280;24578;48.264;11.436;2022-10-16T11:50:39;96382.66;;;30.60;31.06
13604;BME280;24578;48.264;11.436;2022-10-16T11:57:03;96387.19;;;29.45;32.71
13604;BME280;24578;48.264;11.436;2022-10-16T12:00:19;96380.75;;;29.65;33.02
13604;BME280;24578;48.264;11.436;2022-10-16T12:03:32;96379.91;;;29.95;32.67
13604;BME280;24578;48.264;11.436;2022-10-16T12:09:36;96385.28;;;29.76;31.93
13604;BME280;24578;48.264;11.436;2022-10-16T12:12:38;96376.06;;;30.15;31.56
13604;BME280;24578;48.264;11.436;2022-10-16T12:15:39;96383.25;;;30.62;31.09
13604;BME280;24578;48.264;11.436;2022-10-16T12:18:40;96374.56;;;30.83;29.34
13604;BME280;24578;48.264;11.436;2022-10-16T12:21:41;96370.94;;;31.02;29.93
13604;BME280;24578;48.264;11.436;2022-10-16T12:24:42;96360.25;;;31.31;29.98
13604;BME280;24578;48.264;11.436;2022-10-16T12:27:43;96368.31;;;31.07;30.88
13604;BME280;24578;48.264;11.436;2022-10-16T12:30:43;96363.06;;;31.24;30.21
13604;BME280;24578;48.264;11.436;2022-10-16T12:33:59;96368.63;;;31.51;30.81
13604;BME280;24578;48.264;11.436;2022-10-16T12:37:11;96363.25;;;31.34;30.01
13604;BME280;24578;48.264;11.436;2022-10-16T12:40:13;96368.81;;;31.04;30.69
13604;BME280;24578;48.264;11.436;2022-10-16T12:46:23;96364.75;;;30.72;29.38
13604;BME280;24578;48.264;11.436;2022-10-16T12:49:37;96367.66;;;30.47;31.15
13604;BME280;24578;48.264;11.436;2022-10-16T12:52:38;96366.94;;;29.56;31.13
13604;BME280;24578;48.264;11.436;2022-10-16T12:56:22;96363.91;;;29.41;32.19
13604;BME280;24578;48.264;11.436;2022-10-16T12:59:05;96360.69;;;29.51;31.78
13604;BME280;24578;48.264;11.436;2022-10-16T13:11:50;96362.22;;;29.58;30.61
13604;BME280;24578;48.264;11.436;2022-10-16T13:24:02;96370.25;;;29.09;31.22
13604;BME280;24578;48.264;11.436;2022-10-16T13:27:09;96370.16;;;28.85;29.94
13604;BME280;24578;48.264;11.436;2022-10-16T13:30:12;96375.94;;;28.82;31.97
13604;BME280;24578;48.264;11.436;2022-10-16T13:33:33;96378.94;;;28.86;31.66
13604;BME280;24578;48.264;11.436;2022-10-16T13:36:42;96385.25;;;28.73;31.50
13604;BME280;24578;48.264;11.436;2022-10-16T13:39:42;96385.06;;;28.49;31.74
13604;BME280;24578;48.264;11.436;2022-10-16T13:42:42;96388.72;;;28.11;32.56
13604;BME280;24578;48.264;11.436;2022-10-16T13:45:51;96394.13;;;27.98;32.78
13604;BME280;24578;48.264;11.436;2022-10-16T13:51:59;96395.72;;;27.80;34.93
13604;BME280;24578;48.264;11.436;2022-10-16T13:54:59;96390.91;;;27.70;34.74
13604;BME280;24578;48.264;11.436;2022-10-16T13:58:11;96395.66;;;27.61;35.40
13604;BME280;24578;48.264;11.436;2022-10-16T14:01:25;96396.97;;;27.45;34.96
13604;BME280;24578;48.264;11.436;2022-10-16T14:04:27;96395.56;;;27.43;35.20
13604;BME280;24578;48.264;11.436;2022-10-16T14:07:30;96401.19;;;27.21;37.33
13604;BME280;24578;48.264;11.436;2022-10-16T14:10:31;96397.38;;;27.03;37.69
13604;BME280;24578;48.264;11.436;2022-10-16T14:13:47;96402.34;;;26.93;38.99
13604;BME280;24578;48.264;11.436;2022-10-16T14:16:48;96402.59;;;26.78;38.53
13604;BME280;24578;48.264;11.436;2022-10-16T14:19:49;96397.13;;;26.59;37.71
13604;BME280;24578;48.264;11.436;2022-10-16T14:22:57;96399.41;;;26.42;39.39
13604;BME280;24578;48.264;11.436;2022-10-16T14:29:14;96396.19;;;26.00;38.49
13604;BME280;24578;48.264;11.436;2022-10-16T14:32:21;96406.59;;;25.81;39.18
13604;BME280;24578;48.264;11.436;2022-10-16T14:35:32;96404.31;;;25.65;41.05
13604;BME280;24578;48.264;11.436;2022-10-16T14:38:33;96406.34;;;25.49;41.91
13604;BME280;24578;48.264;11.436;2022-10-16T14:41:40;96405.06;;;25.32;42.27
13604;BME280;24578;48.264;11.436;2022-10-16T14:44:41;96405.84;;;25.12;43.16
13604;BME280;24578;48.264;11.436;2022-10-16T14:47:47;96408.59;;;24.90;43.34
13604;BME280;24578;48.264;11.436;2022-10-16T14:50:48;96410.34;;;24.70;44.15
13604;BME280;24578;48.264;11.436;2022-10-16T14:53:49;96417.34;;;24.49;44.99
13604;BME280;24578;48.264;11.436;2022-10-16T14:59:49;96410.53;;;24.05;47.66
13604;BME280;24578;48.264;11.436;2022-10-16T15:02:52;96415.44;;;23.86;48.90
13604;BME280;24578;48.264;11.436;2022-10-16T15:05:53;96422.81;;;23.69;50.66
13604;BME280;24578;48.264;11.436;2022-10-16T15:08:53;96419.34;;;23.47;53.00
13604;BME280;24578;48.264;11.436;2022-10-16T15:11:53;96430.53;;;23.27;54.61
13604;BME280;24578;48.264;11.436;2022-10-16T15:14:53;96425.81;;;23.07;56.23
13604;BME280;24578;48.264;11.436;2022-10-16T15:17:54;96420.00;;;22.97;56.29
13604;BME280;24578;48.264;11.436;2022-10-16T15:20:56;96431.84;;;22.86;59.22
13604;BME280;24578;48.264;11.436;2022-10-16T15:23:57;96423.78;;;22.73;60.54
13604;BME280;24578;48.264;11.436;2022-10-16T15:26:57;96430.41;;;22.54;62.52
13604;BME280;24578;48.264;11.436;2022-10-16T15:29:58;96428.38;;;22.41;64.43
13604;BME280;24578;48.264;11.436;2022-10-16T15:32:58;96436.06;;;22.27;65.98
13604;BME280;24578;48.264;11.436;2022-10-16T15:35:58;96437.50;;;22.15;67.17
13604;BME280;24578;48.264;11.436;2022-10-16T15:38:59;96440.59;;;22.03;66.68
13604;BME280;24578;48.264;11.436;2022-10-16T15:42:00;96444.66;;;21.91;68.46
13604;BME280;24578;48.264;11.436;2022-10-16T15:45:00;96441.16;;;21.75;69.39
13604;BME280;24578;48.264;11.436;2022-10-16T15:48:01;96440.41;;;21.58;71.19
13604;BME280;24578;48.264;11.436;2022-10-16T15:51:03;96445.16;;;21.40;70.79
13604;BME280;24578;48.264;11.436;2022-10-16T15:54:04;96450.03;;;21.20;72.68
13604;BME280;24578;48.264;11.436;2022-10-16T15:57:05;96458.50;;;20.98;74.39
13604;BME280;24578;48.264;11.436;2022-10-16T16:00:07;96457.13;;;20.79;76.89
13604;BME280;24578;48.264;11.436;2022-10-16T16:03:07;96458.44;;;20.59;77.66
13604;BME280;24578;48.264;11.436;2022-10-16T16:06:09;96456.22;;;20.39;79.03
13604;BME280;24578;48.264;11.436;2022-10-16T16:09:09;96457.38;;;20.20;80.42
13604;BME280;24578;48.264;11.436;2022-10-16T16:12:10;96458.56;;;20.01;82.17
13604;BME280;24578;48.264;11.436;2022-10-16T16:15:10;96459.00;;;19.80;84.12
13604;BME280;24578;48.264;11.436;2022-10-16T16:18:10;96457.69;;;19.59;86.92
13604;BME280;24578;48.264;11.436;2022-10-16T16:21:11;96463.56;;;19.36;87.81
13604;BME280;24578;48.264;11.436;2022-10-16T16:24:11;96469.88;;;19.17;90.37
13604;BME280;24578;48.264;11.436;2022-10-16T16:27:12;96465.72;;;18.98;92.44
13604;BME280;24578;48.264;11.436;2022-10-16T16:30:13;96462.34;;;18.79;93.83
13604;BME280;24578;48.264;11.436;2022-10-16T16:33:13;96470.28;;;18.61;95.24
13604;BME280;24578;48.264;11.436;2022-10-16T16:36:13;96482.31;;;18.46;96.76
13604;BME280;24578;48.264;11.436;2022-10-16T16:39:14;96479.41;;;18.31;97.79
13604;BME280;24578;48.264;11.436;2022-10-16T16:42:14;96484.41;;;18.16;99.75
13604;BME280;24578;48.264;11.436;2022-10-16T16:45:14;96485.09;;;18.00;100.00
13604;BME280;24578;48.264;11.436;2022-10-16T16:48:14;96492.47;;;17.86;100.00
13604;BME280;24578;48.264;11.436;2022-10-16T16:51:16;96493.69;;;17.74;100.00
13604;BME280;24578;48.264;11.436;2022-10-16T16:54:17;96499.00;;;17.64;100.00
13604;BME280;24578;48.264;11.436;2022-10-16T16:57:18;96506.38;;;17.50;100.00
13604;BME280;24578;48.264;11.436;2022-10-16T17:00:18;96507.69;;;17.37;100.00
13604;BME280;24578;48.264;11.436;2022-10-16T17:03:19;96503.66;;;17.24;100.00
13604;BME280;24578;48.264;11.436;2022-10-16T17:06:24;96520.50;;;17.12;100.00
13604;BME280;24578;48.264;11.436;2022-10-16T17:09:25;96526.06;;;16.99;100.00
13604;BME280;24578;48.264;11.436;2022-10-16T17:12:25;96528.69;;;16.89;100.00
13604;BME280;24578;48.264;11.436;2022-10-16T17:15:25;96535.47;;;16.82;100.00
13604;BME280;24578;48.264;11.436;2022-10-16T17:18:25;96536.44;;;16.71;100.00